createdAt,value
2019-06-08T00:01:14.499Z,17.70
2019-06-08T00:03:46.045Z,17.80
2019-06-08T00:06:18.839Z,17.80
2019-06-08T00:08:50.418Z,17.70
2019-06-08T00:11:23.264Z,17.60
2019-06-08T00:13:55.219Z,17.70
2019-06-08T00:16:26.588Z,17.70
2019-06-08T00:18:58.170Z,17.60
2019-06-08T00:21:29.473Z,17.70
2019-06-08T00:24:01.048Z,17.90
2019-06-08T00:26:32.523Z,17.80
2019-06-08T00:29:03.881Z,17.80
2019-06-08T00:31:35.457Z,17.80
2019-06-08T00:34:07.052Z,17.80
2019-06-08T00:36:38.685Z,17.80
2019-06-08T00:39:10.629Z,17.70
2019-06-08T00:41:42.102Z,17.70
2019-06-08T00:44:13.550Z,17.70
2019-06-08T00:46:44.938Z,17.70
2019-06-08T00:49:16.482Z,17.50
2019-06-08T00:51:47.708Z,17.40
2019-06-08T00:54:19.554Z,17.50
2019-06-08T00:56:50.981Z,17.50
2019-06-08T00:59:22.590Z,17.50
2019-06-08T01:01:53.937Z,17.40
2019-06-08T01:04:26.932Z,17.30
2019-06-08T01:06:58.521Z,17.10
2019-06-08T01:09:31.203Z,17.00
2019-06-08T01:12:03.238Z,16.80
2019-06-08T01:14:34.647Z,16.90
2019-06-08T01:17:06.072Z,17.00
2019-06-08T01:19:37.384Z,17.10
2019-06-08T01:22:08.839Z,17.20
2019-06-08T01:24:40.234Z,17.00
2019-06-08T01:27:11.707Z,17.20
2019-06-08T01:29:43.063Z,17.30
2019-06-08T01:32:14.526Z,17.10
2019-06-08T01:34:45.902Z,17.10
2019-06-08T01:37:17.198Z,17.00
2019-06-08T01:39:48.583Z,17.10
2019-06-08T01:42:21.350Z,17.00
2019-06-08T01:44:52.965Z,17.00
2019-06-08T01:47:24.652Z,16.90
2019-06-08T01:49:56.421Z,17.00
2019-06-08T01:52:28.868Z,17.00
2019-06-08T01:55:00.236Z,17.20
2019-06-08T01:57:31.751Z,17.00
2019-06-08T02:00:28.718Z,17.10
2019-06-08T02:02:37.348Z,17.10
2019-06-08T02:05:09.550Z,17.30
2019-06-08T02:07:42.047Z,17.20
2019-06-08T02:10:15.302Z,17.20
2019-06-08T02:12:46.690Z,17.30
2019-06-08T02:15:19.119Z,17.30
2019-06-08T02:17:50.559Z,17.20
2019-06-08T02:20:22.137Z,17.20
2019-06-08T02:22:54.279Z,17.20
2019-06-08T02:25:29.430Z,17.20
2019-06-08T02:28:00.945Z,17.30
2019-06-08T02:30:36.116Z,17.30
2019-06-08T02:33:06.078Z,17.20
2019-06-08T02:35:37.953Z,17.10
2019-06-08T02:38:09.398Z,17.20
2019-06-08T02:40:40.841Z,17.30
2019-06-08T02:43:12.509Z,17.30
2019-06-08T02:45:44.048Z,17.20
2019-06-08T02:48:15.452Z,17.20
2019-06-08T02:50:55.492Z,17.20
2019-06-08T02:53:29.456Z,17.30
2019-06-08T02:56:02.596Z,17.30
2019-06-08T02:58:36.944Z,17.30
2019-06-08T03:01:09.585Z,17.20
2019-06-08T03:03:42.056Z,17.30
2019-06-08T03:06:15.723Z,17.20
2019-06-08T03:08:49.677Z,17.10
2019-06-08T03:11:21.891Z,17.20
2019-06-08T03:13:56.194Z,17.30
2019-06-08T03:16:27.646Z,17.20
2019-06-08T03:18:59.090Z,17.30
2019-06-08T03:21:31.405Z,17.40
2019-06-08T03:24:02.981Z,17.40
2019-06-08T03:26:34.399Z,17.50
2019-06-08T03:29:06.146Z,17.50
2019-06-08T03:31:45.783Z,17.50
2019-06-08T03:34:10.582Z,17.40
2019-06-08T03:36:53.813Z,17.40
2019-06-08T03:39:15.049Z,17.40
2019-06-08T03:41:46.504Z,17.30
2019-06-08T03:44:18.045Z,17.40
2019-06-08T03:46:49.469Z,17.50
2019-06-08T03:49:37.085Z,17.50
2019-06-08T03:51:53.995Z,17.50
2019-06-08T03:54:25.398Z,17.50
2019-06-08T03:56:56.761Z,17.60
2019-06-08T03:59:28.179Z,17.60
2019-06-08T04:01:59.576Z,17.40
2019-06-08T04:04:31.053Z,17.60
2019-06-08T04:07:02.503Z,17.70
2019-06-08T04:09:33.944Z,17.60
2019-06-08T04:12:06.567Z,17.60
2019-06-08T04:14:38.006Z,17.60
2019-06-08T04:17:10.845Z,17.80
2019-06-08T04:20:05.430Z,17.80
2019-06-08T04:22:15.577Z,17.80
2019-06-08T04:24:46.886Z,17.80
2019-06-08T04:27:18.389Z,17.90
2019-06-08T04:29:50.229Z,17.90
2019-06-08T04:32:21.714Z,17.80
2019-06-08T04:34:53.099Z,17.70
2019-06-08T04:37:24.394Z,17.80
2019-06-08T04:39:55.808Z,17.80
2019-06-08T04:42:27.336Z,18.00
2019-06-08T04:44:58.679Z,18.50
2019-06-08T04:47:30.180Z,18.70
2019-06-08T04:50:20.310Z,18.70
2019-06-08T04:52:34.577Z,18.70
2019-06-08T04:55:07.064Z,19.00
2019-06-08T04:57:39.398Z,19.10
2019-06-08T05:00:13.082Z,19.10
2019-06-08T05:02:46.998Z,18.90
2019-06-08T05:05:17.983Z,19.00
2019-06-08T05:07:50.340Z,19.00
2019-06-08T05:10:23.008Z,19.10
2019-06-08T05:12:54.429Z,19.20
2019-06-08T05:15:25.759Z,19.20
2019-06-08T05:17:57.213Z,19.40
2019-06-08T05:20:38.530Z,19.50
2019-06-08T05:23:01.644Z,19.70
2019-06-08T05:25:33.159Z,19.70
2019-06-08T05:28:04.626Z,19.90
2019-06-08T05:30:36.008Z,20.10
2019-06-08T05:33:07.426Z,20.50
2019-06-08T05:35:39.404Z,21.40
2019-06-08T05:38:10.826Z,21.30
2019-06-08T05:40:43.511Z,21.20
2019-06-08T05:43:15.083Z,21.00
2019-06-08T05:45:48.327Z,21.70
2019-06-08T05:48:19.564Z,21.50
2019-06-08T05:51:03.086Z,21.10
2019-06-08T05:53:24.093Z,21.10
2019-06-08T05:55:55.474Z,21.40
2019-06-08T05:58:27.117Z,21.40
2019-06-08T06:00:58.402Z,21.50
2019-06-08T06:03:29.750Z,21.50
2019-06-08T06:06:01.147Z,21.40
2019-06-08T06:08:32.462Z,21.70
2019-06-08T06:11:03.887Z,21.70
2019-06-08T06:13:35.234Z,22.30
2019-06-08T06:16:06.666Z,24.00
2019-06-08T06:18:38.184Z,25.00
2019-06-08T06:21:11.644Z,24.60
2019-06-08T06:23:43.151Z,25.20
2019-06-08T06:26:14.641Z,26.40
2019-06-08T06:28:46.034Z,27.30
2019-06-08T06:31:17.510Z,27.60
2019-06-08T06:33:50.052Z,27.00
2019-06-08T06:36:21.499Z,26.10
2019-06-08T06:38:53.091Z,25.80
2019-06-08T06:41:24.459Z,25.10
2019-06-08T06:43:55.958Z,24.80
2019-06-08T06:46:27.403Z,24.50
2019-06-08T06:48:59.067Z,24.40
2019-06-08T06:51:30.376Z,23.80
2019-06-08T06:54:01.818Z,23.80
2019-06-08T06:56:33.067Z,24.00
2019-06-08T06:59:04.660Z,23.90
2019-06-08T07:01:36.046Z,23.90
2019-06-08T07:04:07.473Z,23.70
2019-06-08T07:06:38.879Z,23.90
2019-06-08T07:09:10.357Z,23.90
2019-06-08T07:11:41.736Z,23.90
2019-06-08T07:14:13.248Z,23.80
2019-06-08T07:16:45.750Z,23.80
2019-06-08T07:19:17.331Z,23.60
2019-06-08T07:21:48.779Z,23.50
2019-06-08T07:24:20.239Z,23.30
2019-06-08T07:26:52.464Z,23.10
2019-06-08T07:29:24.766Z,23.40
2019-06-08T07:31:56.117Z,23.40
2019-06-08T07:34:27.562Z,23.30
2019-06-08T07:36:59.598Z,23.40
2019-06-08T07:39:30.959Z,23.50
2019-06-08T07:42:02.319Z,23.10
2019-06-08T07:44:33.680Z,23.20
2019-06-08T07:47:05.113Z,23.00
2019-06-08T07:49:36.545Z,23.10
2019-06-08T07:52:10.638Z,23.30
2019-06-08T07:54:40.786Z,23.20
2019-06-08T07:57:12.142Z,23.30
2019-06-08T07:59:43.449Z,23.30
2019-06-08T08:02:14.734Z,23.30
2019-06-08T08:04:46.168Z,22.90
2019-06-08T08:07:17.517Z,22.80
2019-06-08T08:09:48.924Z,22.60
2019-06-08T08:12:20.272Z,22.50
2019-06-08T08:14:53.173Z,22.30
2019-06-08T08:17:24.772Z,22.30
2019-06-08T08:19:57.310Z,22.00
2019-06-08T08:22:29.616Z,21.90
2019-06-08T08:25:04.645Z,22.00
2019-06-08T08:27:34.253Z,21.90
2019-06-08T08:30:08.175Z,22.20
2019-06-08T08:32:38.928Z,22.50
2019-06-08T08:35:10.475Z,22.60
2019-06-08T08:37:41.863Z,22.50
2019-06-08T08:40:13.457Z,22.10
2019-06-08T08:42:44.758Z,21.90
2019-06-08T08:45:18.287Z,21.70
2019-06-08T08:47:50.753Z,21.90
2019-06-08T08:50:22.565Z,21.90
2019-06-08T08:52:54.199Z,22.10
2019-06-08T08:55:27.855Z,22.10
2019-06-08T08:57:59.441Z,21.70
2019-06-08T09:00:31.893Z,21.90
2019-06-08T09:03:22.056Z,22.20
2019-06-08T09:05:38.169Z,22.50
2019-06-08T09:08:10.589Z,22.70
2019-06-08T09:10:43.127Z,22.80
2019-06-08T09:13:14.474Z,23.00
2019-06-08T09:15:47.866Z,23.20
2019-06-08T09:18:19.773Z,23.30
2019-06-08T09:20:52.346Z,23.40
2019-06-08T09:23:24.075Z,23.50
2019-06-08T09:26:03.953Z,23.60
2019-06-08T09:28:29.282Z,23.70
2019-06-08T09:31:02.792Z,23.60
2019-06-08T09:33:33.592Z,23.50
2019-06-08T09:36:05.762Z,23.40
2019-06-08T09:38:38.684Z,23.30
2019-06-08T09:41:10.125Z,23.20
2019-06-08T09:43:41.510Z,23.20
2019-06-08T09:46:12.934Z,23.10
2019-06-08T09:48:44.277Z,23.20
2019-06-08T09:51:16.633Z,23.50
2019-06-08T09:53:48.675Z,23.70
2019-06-08T09:56:20.300Z,23.50
2019-06-08T09:58:51.675Z,23.70
2019-06-08T10:01:23.011Z,23.40
2019-06-08T10:03:54.472Z,23.20
2019-06-08T10:06:26.285Z,23.30
2019-06-08T10:08:58.526Z,23.10
2019-06-08T10:11:29.905Z,23.20
2019-06-08T10:14:03.715Z,23.30
2019-06-08T10:16:34.258Z,23.50
2019-06-08T10:19:07.986Z,23.70
2019-06-08T10:21:42.738Z,23.90
2019-06-08T10:24:11.892Z,23.90
2019-06-08T10:26:43.409Z,24.00
2019-06-08T10:29:14.993Z,24.20
2019-06-08T10:31:48.359Z,24.40
2019-06-08T10:34:19.482Z,24.40
2019-06-08T10:36:50.865Z,24.20
2019-06-08T10:39:22.248Z,24.00
2019-06-08T10:41:53.742Z,23.90
2019-06-08T10:44:25.208Z,24.10
2019-06-08T10:46:58.981Z,24.40
2019-06-08T10:49:29.635Z,24.60
2019-06-08T10:52:03.467Z,24.90
2019-06-08T10:54:34.061Z,24.70
2019-06-08T10:57:07.448Z,24.70
2019-06-08T10:59:40.220Z,24.70
2019-06-08T11:02:13.991Z,25.00
2019-06-08T11:04:44.514Z,25.30
2019-06-08T11:07:16.572Z,25.50
2019-06-08T11:09:50.732Z,25.70
2019-06-08T11:12:22.243Z,25.70
2019-06-08T11:14:53.665Z,25.80
2019-06-08T11:17:27.784Z,25.80
2019-06-08T11:20:00.451Z,25.90
2019-06-08T11:22:30.962Z,25.80
2019-06-08T11:25:04.412Z,25.80
2019-06-08T11:27:38.646Z,25.90
2019-06-08T11:30:17.376Z,26.00
2019-06-08T11:32:42.050Z,26.10
2019-06-08T11:35:13.627Z,26.10
2019-06-08T11:37:44.974Z,26.10
2019-06-08T11:40:20.619Z,26.20
2019-06-08T11:42:51.125Z,26.40
2019-06-08T11:45:22.780Z,26.60
2019-06-08T11:47:54.129Z,26.70
2019-06-08T11:50:42.097Z,26.70
2019-06-08T11:53:14.926Z,26.90
2019-06-08T11:55:50.743Z,27.10
2019-06-08T11:58:22.825Z,26.40
2019-06-08T12:01:04.610Z,26.00
2019-06-08T12:03:38.539Z,25.50
2019-06-08T12:06:11.966Z,25.00
2019-06-08T12:08:41.924Z,25.10
2019-06-08T12:11:18.419Z,25.30
2019-06-08T12:13:47.430Z,25.40
2019-06-08T12:16:22.184Z,25.50
2019-06-08T12:18:51.833Z,25.20
2019-06-08T12:21:23.201Z,25.10
2019-06-08T12:23:54.569Z,24.90
2019-06-08T12:26:26.094Z,24.80
2019-06-08T12:28:58.020Z,24.60
2019-06-08T12:31:30.710Z,24.70
2019-06-08T12:34:02.140Z,24.60
2019-06-08T12:36:33.547Z,24.20
2019-06-08T12:39:06.056Z,23.40
2019-06-08T12:41:38.072Z,22.90
2019-06-08T12:44:12.299Z,22.60
2019-06-08T12:46:42.732Z,21.90
2019-06-08T12:49:14.702Z,21.30
2019-06-08T12:51:50.640Z,20.80
2019-06-08T12:54:20.801Z,20.80
2019-06-08T12:56:52.230Z,20.60
2019-06-08T12:59:23.691Z,20.20
2019-06-08T13:01:55.110Z,19.80
2019-06-08T13:04:28.435Z,19.70
2019-06-08T13:06:59.553Z,19.40
2019-06-08T13:09:31.104Z,19.30
2019-06-08T13:12:03.162Z,19.10
2019-06-08T13:14:35.129Z,19.20
2019-06-08T13:17:08.756Z,19.10
2019-06-08T13:19:39.587Z,19.20
2019-06-08T13:22:10.970Z,19.20
2019-06-08T13:24:42.373Z,19.10
2019-06-08T13:27:15.421Z,19.30
2019-06-08T13:29:48.810Z,19.40
2019-06-08T13:32:21.841Z,19.50
2019-06-08T13:34:52.870Z,19.70
2019-06-08T13:37:24.826Z,19.80
2019-06-08T13:39:58.904Z,19.90
2019-06-08T13:42:29.202Z,20.10
2019-06-08T13:45:00.493Z,20.20
2019-06-08T13:47:31.847Z,20.20
2019-06-08T13:50:03.306Z,20.30
2019-06-08T13:52:34.767Z,20.40
2019-06-08T13:55:06.674Z,20.40
2019-06-08T13:57:38.164Z,20.40
2019-06-08T14:00:11.405Z,20.50
2019-06-08T14:02:42.811Z,20.50
2019-06-08T14:05:18.091Z,20.40
2019-06-08T14:07:49.172Z,20.50
2019-06-08T14:10:24.512Z,20.50
2019-06-08T14:12:58.683Z,20.40
2019-06-08T14:15:31.539Z,20.40
2019-06-08T14:18:02.866Z,20.50
2019-06-08T14:20:34.658Z,20.60
2019-06-08T14:23:08.728Z,20.70
2019-06-08T14:25:50.117Z,20.70
2019-06-08T14:28:12.187Z,20.70
2019-06-08T14:30:43.461Z,20.70
2019-06-08T14:33:14.905Z,21.10
2019-06-08T14:35:46.611Z,21.10
2019-06-08T14:38:20.292Z,21.20
2019-06-08T14:40:50.975Z,21.30
2019-06-08T14:43:23.002Z,21.50
2019-06-08T14:45:54.414Z,21.60
2019-06-08T14:48:31.665Z,21.50
2019-06-08T14:50:58.944Z,21.00
2019-06-08T14:53:30.316Z,20.90
2019-06-08T14:56:08.352Z,20.80
2019-06-08T14:58:35.229Z,20.60
2019-06-08T15:01:07.870Z,20.60
2019-06-08T15:03:39.578Z,20.50
2019-06-08T15:06:10.955Z,20.50
2019-06-08T15:08:42.424Z,20.50
2019-06-08T15:11:13.824Z,20.50
2019-06-08T15:13:45.281Z,20.40
2019-06-08T15:16:18.174Z,20.40
2019-06-08T15:18:49.657Z,20.40
2019-06-08T15:21:23.090Z,20.50
2019-06-08T15:23:54.042Z,20.40
2019-06-08T15:26:33.653Z,20.50
2019-06-08T15:28:58.786Z,20.40
2019-06-08T15:31:31.527Z,20.30
2019-06-08T15:34:04.524Z,20.40
2019-06-08T15:36:38.048Z,20.20
2019-06-08T15:39:09.024Z,20.10
2019-06-08T15:41:40.507Z,20.00
2019-06-08T15:44:11.866Z,20.30
2019-06-08T15:46:43.274Z,20.20
2019-06-08T15:49:14.845Z,20.30
2019-06-08T15:51:48.091Z,20.20
2019-06-08T15:54:19.181Z,20.10
2019-06-08T15:56:52.245Z,20.20
2019-06-08T15:59:24.812Z,20.00
2019-06-08T16:01:56.363Z,19.90
2019-06-08T16:04:27.841Z,20.10
2019-06-08T16:06:59.307Z,19.90
2019-06-08T16:09:32.065Z,19.90
2019-06-08T16:12:03.603Z,19.90
2019-06-08T16:14:35.115Z,20.10
2019-06-08T16:17:07.554Z,20.10
2019-06-08T16:19:38.911Z,20.10
2019-06-08T16:22:10.224Z,20.20
2019-06-08T16:24:41.611Z,20.20
2019-06-08T16:27:12.887Z,20.10
2019-06-08T16:29:44.377Z,20.10
2019-06-08T16:32:15.740Z,20.00
2019-06-08T16:34:47.126Z,20.10
2019-06-08T16:37:18.614Z,20.20
2019-06-08T16:39:50.062Z,20.10
2019-06-08T16:42:22.422Z,20.00
2019-06-08T16:44:53.891Z,20.00
2019-06-08T16:47:25.456Z,19.90
2019-06-08T16:49:56.810Z,20.00
2019-06-08T16:52:28.478Z,20.00
2019-06-08T16:54:59.961Z,19.90
2019-06-08T16:57:35.080Z,19.90
2019-06-08T17:00:30.078Z,19.90
2019-06-08T17:02:39.589Z,19.90
2019-06-08T17:05:11.194Z,19.80
2019-06-08T17:07:42.626Z,19.60
2019-06-08T17:10:14.223Z,19.40
2019-06-08T17:12:45.639Z,19.40
2019-06-08T17:15:18.258Z,19.30
2019-06-08T17:17:49.569Z,19.50
2019-06-08T17:20:21.059Z,19.50
2019-06-08T17:22:52.801Z,19.40
2019-06-08T17:25:24.193Z,19.40
2019-06-08T17:27:55.579Z,19.30
2019-06-08T17:30:26.959Z,19.30
2019-06-08T17:32:58.532Z,19.20
2019-06-08T17:35:29.866Z,19.10
2019-06-08T17:38:01.175Z,19.20
2019-06-08T17:40:33.837Z,19.20
2019-06-08T17:43:05.493Z,19.00
2019-06-08T17:45:36.820Z,18.90
2019-06-08T17:48:08.196Z,19.00
2019-06-08T17:50:40.768Z,19.10
2019-06-08T17:53:12.065Z,18.90
2019-06-08T17:55:43.944Z,19.00
2019-06-08T17:58:15.386Z,19.00
2019-06-08T18:00:47.077Z,18.70
2019-06-08T18:03:18.520Z,18.80
2019-06-08T18:05:49.869Z,18.80
2019-06-08T18:08:21.300Z,18.70
2019-06-08T18:10:52.791Z,18.80
2019-06-08T18:13:24.153Z,18.80
2019-06-08T18:15:57.601Z,18.70
2019-06-08T18:18:31.478Z,18.80
2019-06-08T18:21:02.861Z,19.00
2019-06-08T18:23:34.308Z,19.10
2019-06-08T18:26:07.756Z,19.10
2019-06-08T18:28:42.282Z,18.90
2019-06-08T18:31:13.058Z,19.00
2019-06-08T18:33:45.749Z,19.00
2019-06-08T18:36:17.529Z,19.00
2019-06-08T18:38:48.884Z,18.90
2019-06-08T18:41:20.255Z,19.00
2019-06-08T18:43:52.686Z,19.00
2019-06-08T18:46:24.237Z,19.10
2019-06-08T18:48:57.457Z,19.10
2019-06-08T18:51:28.463Z,19.10
2019-06-08T18:54:11.774Z,19.10
2019-06-08T18:56:32.903Z,19.10
2019-06-08T18:59:04.341Z,19.10
2019-06-08T19:01:37.909Z,19.10
2019-06-08T19:04:08.722Z,19.00
2019-06-08T19:06:41.216Z,19.00
2019-06-08T19:09:13.115Z,18.80
2019-06-08T19:11:45.447Z,18.70
2019-06-08T19:14:17.916Z,18.50
2019-06-08T19:16:54.480Z,18.40
2019-06-08T19:19:23.511Z,18.50
2019-06-08T19:21:54.889Z,18.40
2019-06-08T19:24:28.025Z,18.40
2019-06-08T19:26:59.588Z,18.30
2019-06-08T19:29:30.955Z,18.40
2019-06-08T19:32:02.307Z,18.30
2019-06-08T19:34:33.732Z,18.40
2019-06-08T19:37:05.141Z,18.50
2019-06-08T19:39:38.070Z,18.30
2019-06-08T19:42:09.661Z,18.30
2019-06-08T19:44:48.558Z,18.30
2019-06-08T19:47:14.144Z,18.10
2019-06-08T19:49:47.732Z,18.10
2019-06-08T19:52:18.575Z,18.10
2019-06-08T19:54:53.711Z,18.00
2019-06-08T19:57:23.029Z,17.90
2019-06-08T19:59:54.411Z,17.80
2019-06-08T20:02:27.162Z,17.70
2019-06-08T20:04:59.089Z,17.40
2019-06-08T20:07:30.482Z,17.30
2019-06-08T20:10:02.883Z,17.20
2019-06-08T20:12:37.184Z,17.20
2019-06-08T20:15:09.484Z,17.10
2019-06-08T20:17:41.625Z,17.20
2019-06-08T20:20:13.192Z,17.20
2019-06-08T20:22:45.923Z,17.00
2019-06-08T20:25:17.960Z,17.10
2019-06-08T20:27:51.561Z,16.90
2019-06-08T20:30:23.074Z,16.80
2019-06-08T20:32:54.753Z,16.60
2019-06-08T20:35:28.071Z,16.60
2019-06-08T20:37:59.259Z,16.60
2019-06-08T20:40:30.673Z,16.60
2019-06-08T20:57:01.678Z,16.60
2019-06-08T20:59:34.301Z,16.40
2019-06-08T21:02:08.406Z,16.40
2019-06-08T21:04:40.024Z,16.40
2019-06-08T21:07:11.532Z,16.30
2019-06-08T21:09:44.850Z,16.30
2019-06-08T21:12:17.775Z,16.20
2019-06-08T21:14:51.137Z,16.10
2019-06-08T21:17:22.366Z,16.00
2019-06-08T21:19:55.593Z,15.90
2019-06-08T21:22:29.457Z,15.90
2019-06-08T21:25:01.344Z,15.70
2019-06-08T21:27:33.209Z,15.80
2019-06-08T21:30:11.880Z,15.70
2019-06-08T21:32:39.178Z,15.60
2019-06-08T21:35:10.799Z,15.60
2019-06-08T21:37:42.122Z,15.60
2019-06-08T21:40:13.474Z,15.50
2019-06-08T21:42:47.583Z,15.40
2019-06-08T21:45:19.040Z,15.40
2019-06-08T21:47:51.741Z,15.50
2019-06-08T21:50:23.566Z,15.40
2019-06-08T21:52:56.773Z,15.40
2019-06-08T21:55:28.555Z,15.40
2019-06-08T21:58:01.979Z,15.40
2019-06-08T22:00:42.743Z,15.30
2019-06-08T22:03:09.647Z,15.30
2019-06-08T22:05:42.855Z,15.30
2019-06-08T22:08:14.611Z,15.30
2019-06-08T22:10:47.134Z,15.30
2019-06-08T22:13:18.617Z,15.20
2019-06-08T22:15:51.602Z,15.20
2019-06-08T22:18:24.475Z,15.10
2019-06-08T22:20:59.515Z,15.20
2019-06-08T22:23:30.244Z,15.10
2019-06-08T22:26:03.559Z,15.10
2019-06-08T22:28:37.571Z,15.00
2019-06-08T22:31:08.457Z,15.00
2019-06-08T22:33:39.938Z,14.90
2019-06-08T22:36:12.732Z,14.90
2019-06-08T22:38:44.259Z,15.00
2019-06-08T22:41:17.387Z,14.90
2019-06-08T22:43:49.048Z,14.90
2019-06-08T22:46:21.741Z,14.90
2019-06-08T22:48:54.663Z,14.80
2019-06-08T22:51:27.665Z,14.80
2019-06-08T22:54:02.015Z,14.80
2019-06-08T22:56:33.524Z,14.80
2019-06-08T22:59:08.469Z,14.80
2019-06-08T23:01:39.004Z,14.80
2019-06-08T23:04:11.372Z,14.80
2019-06-08T23:06:42.922Z,14.80
2019-06-08T23:09:14.558Z,14.80
2019-06-08T23:11:47.089Z,14.80
2019-06-08T23:14:19.090Z,14.70
2019-06-08T23:16:50.796Z,14.70
2019-06-08T23:19:22.383Z,14.70
2019-06-08T23:21:53.682Z,14.60
2019-06-08T23:24:27.445Z,14.60
2019-06-08T23:26:58.491Z,14.60
2019-06-08T23:29:29.889Z,14.50
2019-06-08T23:32:04.368Z,14.50
2019-06-08T23:34:38.341Z,14.50
2019-06-08T23:37:12.666Z,14.60
2019-06-08T23:39:43.311Z,14.50
2019-06-08T23:42:14.970Z,14.60
2019-06-08T23:44:47.994Z,14.60
2019-06-08T23:47:19.619Z,14.60
2019-06-08T23:49:51.850Z,14.60
2019-06-08T23:52:23.234Z,14.50
2019-06-08T23:54:58.230Z,14.60
2019-06-08T23:57:29.348Z,14.60
